createdAt,value
2023-03-11T00:03:51.712Z,25.27
2023-03-11T00:07:56.781Z,27.45
2023-03-11T00:11:59.030Z,17.20
2023-03-11T00:16:01.658Z,23.50
2023-03-11T00:20:07.394Z,38.75
2023-03-11T00:24:09.951Z,20.25
2023-03-11T00:28:14.869Z,26.98
2023-03-11T00:32:17.673Z,32.88
2023-03-11T00:36:38.042Z,29.38
2023-03-11T00:40:40.444Z,20.77
2023-03-11T00:44:43.154Z,21.88
2023-03-11T00:48:45.551Z,19.80
2023-03-11T00:52:49.403Z,25.00
2023-03-11T00:56:52.211Z,23.40
2023-03-11T01:00:54.461Z,22.00
2023-03-11T01:04:57.289Z,20.30
2023-03-11T01:08:59.637Z,20.17
2023-03-11T01:13:02.591Z,27.48
2023-03-11T01:17:05.006Z,17.27
2023-03-11T01:21:07.312Z,29.02
2023-03-11T01:25:13.951Z,15.43
2023-03-11T01:29:16.225Z,17.80
2023-03-11T01:33:19.978Z,18.80
2023-03-11T01:37:22.302Z,25.33
2023-03-11T01:41:24.594Z,22.73
2023-03-11T01:45:50.044Z,26.80
2023-03-11T01:49:55.083Z,24.02
2023-03-11T01:54:01.546Z,20.15
2023-03-11T01:58:08.364Z,23.35
2023-03-11T02:02:21.186Z,15.10
2023-03-11T02:06:27.983Z,22.45
2023-03-11T02:10:31.843Z,21.35
2023-03-11T02:14:36.053Z,24.38
2023-03-11T02:18:38.445Z,24.50
2023-03-11T02:22:42.647Z,28.25
2023-03-11T02:27:08.135Z,23.75
2023-03-11T02:31:11.154Z,22.90
2023-03-11T02:35:13.546Z,23.52
2023-03-11T02:39:16.042Z,19.70
2023-03-11T02:43:29.548Z,21.00
2023-03-11T02:47:33.869Z,22.35
2023-03-11T02:51:36.135Z,23.95
2023-03-11T02:55:38.694Z,20.17
2023-03-11T02:59:43.243Z,26.02
2023-03-11T03:03:46.014Z,19.40
2023-03-11T03:07:49.756Z,17.70
2023-03-11T03:11:56.750Z,19.67
2023-03-11T03:16:00.890Z,25.63
2023-03-11T03:20:06.344Z,19.75
2023-03-11T03:24:12.174Z,18.40
2023-03-11T03:28:15.918Z,18.42
2023-03-11T03:32:21.358Z,22.58
2023-03-11T03:36:24.257Z,30.23
2023-03-11T03:40:34.332Z,22.75
2023-03-11T03:44:41.167Z,14.63
2023-03-11T03:48:44.169Z,24.20
2023-03-11T03:52:52.496Z,22.90
2023-03-11T03:56:58.605Z,15.57
2023-03-11T04:01:01.009Z,33.15
2023-03-11T04:05:04.137Z,13.55
2023-03-11T04:09:06.913Z,26.95
2023-03-11T04:13:11.070Z,17.60
2023-03-11T04:17:14.667Z,22.00
2023-03-11T04:25:20.818Z,10.93
2023-03-11T04:29:23.264Z,23.00
2023-03-11T04:33:28.711Z,19.02
2023-03-11T04:37:31.456Z,18.83
2023-03-11T04:41:33.949Z,16.70
2023-03-11T04:45:39.174Z,15.52
2023-03-11T04:49:41.707Z,9.77
2023-03-11T04:53:44.550Z,17.00
2023-03-11T04:57:47.577Z,24.38
2023-03-11T05:01:50.918Z,14.50
2023-03-11T05:05:56.767Z,17.38
2023-03-11T05:09:59.190Z,18.90
2023-03-11T05:14:02.098Z,22.08
2023-03-11T05:18:05.632Z,15.05
2023-03-11T05:22:09.557Z,17.00
2023-03-11T05:26:12.654Z,14.05
2023-03-11T05:30:17.747Z,22.73
2023-03-11T05:34:21.616Z,17.27
2023-03-11T05:38:24.291Z,19.98
2023-03-11T05:42:27.208Z,15.60
2023-03-11T05:46:32.388Z,17.30
2023-03-11T05:50:35.938Z,15.02
2023-03-11T05:54:38.831Z,20.40
2023-03-11T05:58:41.842Z,16.50
2023-03-11T06:02:44.994Z,19.35
2023-03-11T06:06:50.676Z,20.45
2023-03-11T06:11:02.264Z,21.98
2023-03-11T06:20:14.422Z,14.57
2023-03-11T06:24:18.170Z,19.60
2023-03-11T06:28:21.106Z,13.52
2023-03-11T06:32:23.466Z,22.35
2023-03-11T06:36:26.726Z,18.73
2023-03-11T06:40:29.035Z,18.52
2023-03-11T06:44:31.364Z,16.48
2023-03-11T06:48:33.843Z,21.38
2023-03-11T06:52:36.080Z,17.67
2023-03-11T06:56:38.304Z,13.40
2023-03-11T07:00:43.291Z,17.30
2023-03-11T07:04:49.598Z,20.95
2023-03-11T07:08:54.053Z,26.42
2023-03-11T07:12:56.144Z,17.10
2023-03-11T07:16:59.539Z,19.10
2023-03-11T07:21:08.869Z,15.07
2023-03-11T07:25:11.012Z,15.67
2023-03-11T07:29:13.079Z,17.45
2023-03-11T07:33:15.803Z,16.48
2023-03-11T07:37:17.884Z,17.48
2023-03-11T07:41:20.468Z,14.18
2023-03-11T07:45:24.114Z,12.60
2023-03-11T07:49:26.312Z,18.20
2023-03-11T07:53:28.723Z,16.17
2023-03-11T07:57:31.634Z,18.92
2023-03-11T08:01:40.783Z,19.55
2023-03-11T08:05:44.123Z,23.83
2023-03-11T08:09:46.716Z,18.40
2023-03-11T08:13:53.263Z,22.65
2023-03-11T08:17:55.785Z,22.25
2023-03-11T08:21:57.974Z,15.35
2023-03-11T08:26:04.295Z,13.63
2023-03-11T08:30:07.739Z,15.68
2023-03-11T08:34:11.029Z,20.15
2023-03-11T08:38:13.523Z,22.23
2023-03-11T08:42:17.601Z,11.27
2023-03-11T08:46:28.966Z,16.77
2023-03-11T08:50:34.933Z,16.77
2023-03-11T08:54:43.224Z,15.15
2023-03-11T08:58:46.719Z,12.85
2023-03-11T09:02:49.918Z,18.45
2023-03-11T09:06:52.252Z,24.83
2023-03-11T09:10:54.916Z,13.63
2023-03-11T09:14:57.234Z,17.77
2023-03-11T09:19:15.706Z,14.45
2023-03-11T09:23:21.452Z,14.65
2023-03-11T09:28:16.958Z,17.35
2023-03-11T09:32:19.079Z,13.80
2023-03-11T09:36:21.844Z,17.42
2023-03-11T09:40:26.398Z,19.33
2023-03-11T09:49:26.354Z,18.27
2023-03-11T09:53:46.305Z,22.02
2023-03-11T09:58:19.513Z,27.63
2023-03-11T10:02:27.921Z,12.82
2023-03-11T10:06:30.829Z,17.58
2023-03-11T10:10:44.074Z,17.23
2023-03-11T10:15:05.962Z,15.57
2023-03-11T10:19:59.453Z,20.20
2023-03-11T10:24:30.865Z,18.58
2023-03-11T10:28:37.201Z,20.92
2023-03-11T10:33:13.695Z,18.65
2023-03-11T10:37:48.458Z,15.30
2023-03-11T10:42:02.034Z,11.93
2023-03-11T10:46:09.476Z,19.42
2023-03-11T10:50:17.870Z,15.70
2023-03-11T10:54:27.507Z,12.52
2023-03-11T10:58:31.069Z,14.55
2023-03-11T11:02:49.756Z,15.70
2023-03-11T11:06:52.341Z,16.58
2023-03-11T11:10:57.663Z,14.98
2023-03-11T11:14:59.802Z,15.27
2023-03-11T11:19:12.027Z,13.68
2023-03-11T11:23:27.708Z,15.13
2023-03-11T11:27:33.256Z,13.15
2023-03-11T11:31:38.970Z,16.90
2023-03-11T11:35:52.281Z,18.67
2023-03-11T11:39:58.671Z,25.55
2023-03-11T11:44:39.279Z,19.77
2023-03-11T11:48:48.777Z,16.50
2023-03-11T11:53:02.223Z,17.75
2023-03-11T11:57:19.761Z,18.42
2023-03-11T12:01:45.203Z,21.52
2023-03-11T12:06:06.323Z,18.60
2023-03-11T12:10:59.775Z,13.15
2023-03-11T12:15:14.406Z,18.98
2023-03-11T12:19:20.011Z,17.92
2023-03-11T12:23:55.133Z,12.48
2023-03-11T12:28:45.271Z,12.93
2023-03-11T12:33:02.493Z,13.82
2023-03-11T12:37:15.000Z,14.45
2023-03-11T12:41:29.669Z,17.65
2023-03-11T12:45:53.690Z,15.30
2023-03-11T12:50:16.688Z,15.30
2023-03-11T12:54:32.993Z,14.50
2023-03-11T12:58:38.187Z,12.00
2023-03-11T13:02:49.584Z,18.20
2023-03-11T13:07:26.341Z,14.77
2023-03-11T13:11:31.741Z,19.70
2023-03-11T13:15:37.919Z,23.52
2023-03-11T13:19:49.643Z,24.08
2023-03-11T13:23:52.175Z,16.27
2023-03-11T13:28:08.279Z,18.80
2023-03-11T13:32:53.043Z,11.52
2023-03-11T13:37:07.173Z,14.05
2023-03-11T13:41:22.504Z,18.05
2023-03-11T13:45:29.300Z,19.25
2023-03-11T13:49:43.923Z,16.85
2023-03-11T13:54:00.944Z,16.70
2023-03-11T13:58:15.629Z,15.70
2023-03-11T14:02:20.206Z,11.73
2023-03-11T14:06:23.145Z,13.70
2023-03-11T14:10:25.371Z,16.15
2023-03-11T14:14:30.899Z,11.07
2023-03-11T14:18:36.985Z,19.85
2023-03-11T14:22:40.079Z,12.07
2023-03-11T14:26:44.426Z,19.10
2023-03-11T14:31:02.191Z,16.92
2023-03-11T14:35:21.451Z,20.35
2023-03-11T14:39:31.616Z,12.95
2023-03-11T14:43:40.596Z,16.48
2023-03-11T14:47:46.267Z,15.30
2023-03-11T14:51:57.109Z,13.63
2023-03-11T14:56:08.028Z,16.23
2023-03-11T15:00:22.014Z,13.65
2023-03-11T15:04:34.613Z,14.52
2023-03-11T15:09:00.125Z,14.13
2023-03-11T15:13:16.121Z,13.10
2023-03-11T15:17:34.251Z,18.88
2023-03-11T15:21:37.906Z,13.30
2023-03-11T15:25:40.904Z,30.38
2023-03-11T15:29:52.554Z,25.05
2023-03-11T15:33:56.829Z,23.20
2023-03-11T15:42:33.555Z,10.57
2023-03-11T15:46:35.995Z,13.32
2023-03-11T15:50:53.239Z,11.80
2023-03-11T15:54:56.285Z,11.98
2023-03-11T15:58:59.899Z,13.40
2023-03-11T16:03:04.776Z,13.00
2023-03-11T16:07:08.747Z,15.70
2023-03-11T16:11:13.878Z,15.07
2023-03-11T16:15:29.205Z,12.35
2023-03-11T16:19:33.118Z,16.52
2023-03-11T16:23:50.656Z,16.98
2023-03-11T16:27:55.872Z,12.10
2023-03-11T16:31:58.145Z,15.38
2023-03-11T16:36:00.548Z,13.70
2023-03-11T16:40:04.899Z,15.07
2023-03-11T16:48:13.652Z,15.98
2023-03-11T16:52:20.325Z,13.35
2023-03-11T16:56:23.055Z,12.90
2023-03-11T17:00:26.402Z,18.55
2023-03-11T17:04:29.720Z,17.92
2023-03-11T17:08:32.600Z,13.07
2023-03-11T17:12:36.264Z,13.90
2023-03-11T17:16:39.728Z,18.77
2023-03-11T17:20:43.748Z,21.27
2023-03-11T17:24:48.529Z,27.30
2023-03-11T17:28:51.102Z,29.42
2023-03-11T17:32:54.710Z,22.27
2023-03-11T17:36:59.085Z,15.52
2023-03-11T17:41:07.732Z,20.05
2023-03-11T17:45:10.828Z,18.13
2023-03-11T17:49:15.074Z,16.27
2023-03-11T17:53:17.628Z,19.38
2023-03-11T17:57:20.436Z,16.20
2023-03-11T18:01:25.305Z,16.67
2023-03-11T18:05:28.040Z,20.77
2023-03-11T18:09:31.387Z,19.10
2023-03-11T18:13:34.738Z,21.63
2023-03-11T18:17:37.199Z,39.95
2023-03-11T18:21:39.338Z,26.23
2023-03-11T18:25:41.602Z,29.52
2023-03-11T18:29:44.227Z,23.63
2023-03-11T18:33:52.854Z,26.20
2023-03-11T18:37:55.136Z,18.52
2023-03-11T18:41:57.470Z,24.48
2023-03-11T18:46:01.457Z,22.63
2023-03-11T18:50:04.659Z,23.67
2023-03-11T18:54:09.948Z,26.70
2023-03-11T18:58:12.197Z,26.20
2023-03-11T19:02:14.460Z,31.95
2023-03-11T19:06:16.954Z,20.60
2023-03-11T19:10:20.199Z,20.75
2023-03-11T19:14:22.396Z,21.15
2023-03-11T19:18:25.409Z,23.20
2023-03-11T19:22:27.681Z,25.95
2023-03-11T19:26:43.849Z,21.95
2023-03-11T19:30:51.802Z,25.17
2023-03-11T19:40:31.833Z,26.92
2023-03-11T19:44:36.510Z,26.45
2023-03-11T19:48:40.093Z,37.53
2023-03-11T19:52:42.333Z,31.17
2023-03-11T19:56:45.245Z,26.08
2023-03-11T20:00:48.328Z,28.33
2023-03-11T20:04:50.531Z,30.08
2023-03-11T20:08:52.764Z,24.95
2023-03-11T20:13:02.243Z,25.63
2023-03-11T20:17:04.843Z,28.98
2023-03-11T20:21:08.998Z,27.30
2023-03-11T20:25:11.249Z,26.77
2023-03-11T20:29:13.706Z,24.80
2023-03-11T20:33:15.956Z,26.90
2023-03-11T20:37:18.548Z,23.25
2023-03-11T20:41:23.393Z,29.42
2023-03-11T20:45:25.720Z,29.80
2023-03-11T20:49:28.796Z,38.92
2023-03-11T20:53:31.745Z,37.55
2023-03-11T20:57:34.900Z,41.83
2023-03-11T21:01:37.596Z,29.23
2023-03-11T21:05:40.140Z,34.55
2023-03-11T21:09:42.676Z,29.60
2023-03-11T21:13:45.075Z,28.83
2023-03-11T21:17:47.316Z,40.42
2023-03-11T21:21:49.526Z,36.10
2023-03-11T21:25:59.709Z,50.63
2023-03-11T21:30:03.920Z,32.60
2023-03-11T21:34:06.284Z,29.20
2023-03-11T21:38:08.889Z,44.03
2023-03-11T21:42:11.440Z,32.67
2023-03-11T21:46:16.405Z,30.85
2023-03-11T21:50:19.178Z,40.33
2023-03-11T21:54:21.498Z,30.38
2023-03-11T21:58:23.761Z,39.90
2023-03-11T22:02:26.086Z,53.03
2023-03-11T22:06:28.412Z,32.88
2023-03-11T22:10:31.689Z,36.45
2023-03-11T22:14:33.858Z,25.30
2023-03-11T22:18:36.371Z,21.00
2023-03-11T22:22:38.653Z,28.30
2023-03-11T22:26:40.725Z,22.58
2023-03-11T22:30:42.813Z,62.70
2023-03-11T22:34:45.032Z,40.72
2023-03-11T22:38:47.466Z,30.15
2023-03-11T22:42:49.618Z,27.42
2023-03-11T22:46:51.870Z,36.58
2023-03-11T22:50:54.216Z,60.60
2023-03-11T22:54:56.436Z,77.43
2023-03-11T22:58:58.636Z,54.42
2023-03-11T23:03:00.791Z,39.95
2023-03-11T23:07:03.072Z,26.48
2023-03-11T23:11:08.154Z,35.25
2023-03-11T23:15:13.784Z,35.63
2023-03-11T23:19:16.034Z,45.67
2023-03-11T23:23:18.212Z,35.95
2023-03-11T23:27:20.433Z,33.30
2023-03-11T23:31:25.204Z,32.53
2023-03-11T23:35:27.631Z,33.17
2023-03-11T23:39:29.919Z,32.28
2023-03-11T23:43:32.014Z,36.95
2023-03-11T23:47:34.137Z,40.38
2023-03-11T23:51:36.609Z,56.22
2023-03-11T23:55:38.913Z,72.03
2023-03-11T23:59:41.257Z,56.63
